sensor_id;sensor_type;location;lat;lon;timestamp;P1;durP1;ratioP1;P2;durP2;ratioP2
25107;SDS011;13090;53.422;7.670;2023-03-20T00:03:20;2.97;;;2.17;;
25107;SDS011;13090;53.422;7.670;2023-03-20T00:08:24;3.80;;;2.50;;
25107;SDS011;13090;53.422;7.670;2023-03-20T00:13:29;2.78;;;1.92;;
25107;SDS011;13090;53.422;7.670;2023-03-20T00:18:32;3.20;;;2.08;;
25107;SDS011;13090;53.422;7.670;2023-03-20T00:23:35;3.88;;;2.30;;
25107;SDS011;13090;53.422;7.670;2023-03-20T00:28:38;3.00;;;2.30;;
25107;SDS011;13090;53.422;7.670;2023-03-20T00:33:42;3.42;;;2.67;;
25107;SDS011;13090;53.422;7.670;2023-03-20T00:38:46;6.07;;;2.75;;
25107;SDS011;13090;53.422;7.670;2023-03-20T00:43:48;4.88;;;2.85;;
25107;SDS011;13090;53.422;7.670;2023-03-20T00:48:53;4.78;;;2.83;;
25107;SDS011;13090;53.422;7.670;2023-03-20T00:53:57;5.88;;;2.90;;
25107;SDS011;13090;53.422;7.670;2023-03-20T00:59:00;4.53;;;2.40;;
25107;SDS011;13090;53.422;7.670;2023-03-20T01:04:04;4.65;;;2.90;;
25107;SDS011;13090;53.422;7.670;2023-03-20T01:09:13;5.57;;;3.15;;
25107;SDS011;13090;53.422;7.670;2023-03-20T01:14:15;5.38;;;2.90;;
25107;SDS011;13090;53.422;7.670;2023-03-20T01:19:17;6.72;;;2.75;;
25107;SDS011;13090;53.422;7.670;2023-03-20T01:24:21;4.43;;;2.90;;
25107;SDS011;13090;53.422;7.670;2023-03-20T01:29:24;4.40;;;2.38;;
25107;SDS011;13090;53.422;7.670;2023-03-20T01:34:27;4.18;;;2.70;;
25107;SDS011;13090;53.422;7.670;2023-03-20T01:39:31;3.78;;;2.72;;
25107;SDS011;13090;53.422;7.670;2023-03-20T01:44:35;4.03;;;2.80;;
25107;SDS011;13090;53.422;7.670;2023-03-20T01:55:20;3.95;;;3.00;;
25107;SDS011;13090;53.422;7.670;2023-03-20T02:00:23;6.80;;;3.65;;
25107;SDS011;13090;53.422;7.670;2023-03-20T02:05:25;5.93;;;3.28;;
25107;SDS011;13090;53.422;7.670;2023-03-20T02:10:32;6.18;;;4.00;;
25107;SDS011;13090;53.422;7.670;2023-03-20T02:15:35;11.48;;;3.80;;
25107;SDS011;13090;53.422;7.670;2023-03-20T02:26:31;8.07;;;4.63;;
25107;SDS011;13090;53.422;7.670;2023-03-20T02:42:48;7.05;;;3.63;;
25107;SDS011;13090;53.422;7.670;2023-03-20T02:48:01;7.88;;;4.20;;
25107;SDS011;13090;53.422;7.670;2023-03-20T02:53:16;5.10;;;3.60;;
25107;SDS011;13090;53.422;7.670;2023-03-20T02:58:27;5.30;;;3.75;;
25107;SDS011;13090;53.422;7.670;2023-03-20T03:03:37;7.85;;;3.78;;
25107;SDS011;13090;53.422;7.670;2023-03-20T03:08:48;7.30;;;3.72;;
25107;SDS011;13090;53.422;7.670;2023-03-20T03:13:54;5.65;;;3.58;;
25107;SDS011;13090;53.422;7.670;2023-03-20T03:19:01;5.10;;;3.30;;
25107;SDS011;13090;53.422;7.670;2023-03-20T03:24:19;7.93;;;3.33;;
25107;SDS011;13090;53.422;7.670;2023-03-20T03:29:41;4.93;;;3.00;;
25107;SDS011;13090;53.422;7.670;2023-03-20T03:34:46;4.90;;;3.13;;
25107;SDS011;13090;53.422;7.670;2023-03-20T03:39:50;4.60;;;3.08;;
25107;SDS011;13090;53.422;7.670;2023-03-20T03:44:55;6.97;;;3.20;;
25107;SDS011;13090;53.422;7.670;2023-03-20T03:50:04;6.57;;;3.20;;
25107;SDS011;13090;53.422;7.670;2023-03-20T03:55:12;6.70;;;3.30;;
25107;SDS011;13090;53.422;7.670;2023-03-20T04:00:20;5.38;;;3.05;;
25107;SDS011;13090;53.422;7.670;2023-03-20T04:05:26;4.53;;;3.10;;
25107;SDS011;13090;53.422;7.670;2023-03-20T04:10:32;8.57;;;3.42;;
25107;SDS011;13090;53.422;7.670;2023-03-20T04:15:34;8.85;;;3.80;;
25107;SDS011;13090;53.422;7.670;2023-03-20T04:20:37;8.98;;;3.45;;
25107;SDS011;13090;53.422;7.670;2023-03-20T04:25:41;7.78;;;4.18;;
25107;SDS011;13090;53.422;7.670;2023-03-20T04:30:43;10.43;;;4.32;;
25107;SDS011;13090;53.422;7.670;2023-03-20T04:35:45;7.07;;;3.95;;
25107;SDS011;13090;53.422;7.670;2023-03-20T04:40:49;9.13;;;4.25;;
25107;SDS011;13090;53.422;7.670;2023-03-20T04:45:51;7.07;;;4.45;;
25107;SDS011;13090;53.422;7.670;2023-03-20T04:50:54;9.07;;;4.60;;
25107;SDS011;13090;53.422;7.670;2023-03-20T04:55:57;8.80;;;4.35;;
25107;SDS011;13090;53.422;7.670;2023-03-20T05:01:02;9.13;;;4.45;;
25107;SDS011;13090;53.422;7.670;2023-03-20T05:06:05;10.27;;;5.00;;
25107;SDS011;13090;53.422;7.670;2023-03-20T05:11:09;14.23;;;5.07;;
25107;SDS011;13090;53.422;7.670;2023-03-20T05:16:11;12.00;;;4.80;;
25107;SDS011;13090;53.422;7.670;2023-03-20T05:21:13;11.15;;;5.07;;
25107;SDS011;13090;53.422;7.670;2023-03-20T05:26:17;12.02;;;5.60;;
25107;SDS011;13090;53.422;7.670;2023-03-20T05:31:19;12.93;;;5.38;;
25107;SDS011;13090;53.422;7.670;2023-03-20T05:36:21;9.45;;;5.22;;
25107;SDS011;13090;53.422;7.670;2023-03-20T05:41:25;13.05;;;5.97;;
25107;SDS011;13090;53.422;7.670;2023-03-20T05:46:27;10.77;;;6.40;;
25107;SDS011;13090;53.422;7.670;2023-03-20T05:51:29;11.30;;;6.45;;
25107;SDS011;13090;53.422;7.670;2023-03-20T05:56:33;11.70;;;5.90;;
25107;SDS011;13090;53.422;7.670;2023-03-20T06:01:35;10.45;;;6.25;;
25107;SDS011;13090;53.422;7.670;2023-03-20T06:06:37;11.40;;;7.18;;
25107;SDS011;13090;53.422;7.670;2023-03-20T06:11:42;15.27;;;6.95;;
25107;SDS011;13090;53.422;7.670;2023-03-20T06:16:45;11.90;;;6.53;;
25107;SDS011;13090;53.422;7.670;2023-03-20T06:21:47;15.57;;;7.15;;
25107;SDS011;13090;53.422;7.670;2023-03-20T06:26:51;14.70;;;7.45;;
25107;SDS011;13090;53.422;7.670;2023-03-20T06:31:53;14.05;;;6.65;;
25107;SDS011;13090;53.422;7.670;2023-03-20T06:36:56;10.43;;;6.38;;
25107;SDS011;13090;53.422;7.670;2023-03-20T06:41:59;16.58;;;6.97;;
25107;SDS011;13090;53.422;7.670;2023-03-20T06:47:02;14.00;;;6.95;;
25107;SDS011;13090;53.422;7.670;2023-03-20T06:52:04;9.25;;;5.65;;
25107;SDS011;13090;53.422;7.670;2023-03-20T06:57:08;12.80;;;6.28;;
25107;SDS011;13090;53.422;7.670;2023-03-20T07:02:10;17.80;;;8.25;;
25107;SDS011;13090;53.422;7.670;2023-03-20T07:07:12;13.90;;;7.20;;
25107;SDS011;13090;53.422;7.670;2023-03-20T07:12:16;16.02;;;6.95;;
25107;SDS011;13090;53.422;7.670;2023-03-20T07:17:18;11.48;;;6.60;;
25107;SDS011;13090;53.422;7.670;2023-03-20T07:22:21;12.10;;;6.40;;
25107;SDS011;13090;53.422;7.670;2023-03-20T07:27:26;11.13;;;5.20;;
25107;SDS011;13090;53.422;7.670;2023-03-20T07:32:28;12.63;;;6.47;;
25107;SDS011;13090;53.422;7.670;2023-03-20T07:37:31;11.27;;;6.25;;
25107;SDS011;13090;53.422;7.670;2023-03-20T07:42:35;9.85;;;5.78;;
25107;SDS011;13090;53.422;7.670;2023-03-20T07:47:37;12.27;;;4.60;;
25107;SDS011;13090;53.422;7.670;2023-03-20T07:52:40;10.27;;;5.10;;
25107;SDS011;13090;53.422;7.670;2023-03-20T07:57:48;8.00;;;5.07;;
25107;SDS011;13090;53.422;7.670;2023-03-20T08:02:50;8.60;;;4.93;;
25107;SDS011;13090;53.422;7.670;2023-03-20T08:07:52;15.85;;;6.10;;
25107;SDS011;13090;53.422;7.670;2023-03-20T08:12:56;13.32;;;6.80;;
25107;SDS011;13090;53.422;7.670;2023-03-20T08:17:58;10.75;;;5.47;;
25107;SDS011;13090;53.422;7.670;2023-03-20T08:23:01;9.07;;;5.30;;
25107;SDS011;13090;53.422;7.670;2023-03-20T08:28:04;12.68;;;6.10;;
25107;SDS011;13090;53.422;7.670;2023-03-20T08:33:07;11.07;;;5.80;;
25107;SDS011;13090;53.422;7.670;2023-03-20T08:38:09;10.20;;;5.22;;
25107;SDS011;13090;53.422;7.670;2023-03-20T08:43:15;10.98;;;5.35;;
25107;SDS011;13090;53.422;7.670;2023-03-20T08:48:17;10.18;;;5.97;;
25107;SDS011;13090;53.422;7.670;2023-03-20T08:53:19;13.60;;;6.32;;
25107;SDS011;13090;53.422;7.670;2023-03-20T08:58:24;16.70;;;8.50;;
25107;SDS011;13090;53.422;7.670;2023-03-20T09:03:26;11.15;;;7.10;;
25107;SDS011;13090;53.422;7.670;2023-03-20T09:08:28;11.77;;;5.80;;
25107;SDS011;13090;53.422;7.670;2023-03-20T09:13:32;10.82;;;5.55;;
25107;SDS011;13090;53.422;7.670;2023-03-20T09:18:35;9.52;;;5.82;;
25107;SDS011;13090;53.422;7.670;2023-03-20T09:23:37;11.70;;;6.82;;
25107;SDS011;13090;53.422;7.670;2023-03-20T09:28:40;11.52;;;5.82;;
25107;SDS011;13090;53.422;7.670;2023-03-20T09:33:42;10.32;;;5.50;;
25107;SDS011;13090;53.422;7.670;2023-03-20T09:38:45;9.48;;;5.40;;
25107;SDS011;13090;53.422;7.670;2023-03-20T09:43:53;8.18;;;5.47;;
25107;SDS011;13090;53.422;7.670;2023-03-20T09:49:06;9.38;;;5.38;;
25107;SDS011;13090;53.422;7.670;2023-03-20T09:54:20;7.93;;;5.18;;
25107;SDS011;13090;53.422;7.670;2023-03-20T09:59:28;8.65;;;4.82;;
25107;SDS011;13090;53.422;7.670;2023-03-20T10:04:32;11.77;;;6.00;;
25107;SDS011;13090;53.422;7.670;2023-03-20T10:09:36;11.90;;;5.10;;
25107;SDS011;13090;53.422;7.670;2023-03-20T10:14:43;14.77;;;5.25;;
25107;SDS011;13090;53.422;7.670;2023-03-20T10:19:55;10.40;;;4.47;;
25107;SDS011;13090;53.422;7.670;2023-03-20T10:25:01;7.00;;;3.83;;
25107;SDS011;13090;53.422;7.670;2023-03-20T10:30:15;8.98;;;4.82;;
25107;SDS011;13090;53.422;7.670;2023-03-20T10:35:31;8.98;;;4.10;;
25107;SDS011;13090;53.422;7.670;2023-03-20T10:40:36;9.80;;;4.50;;
25107;SDS011;13090;53.422;7.670;2023-03-20T10:45:43;8.98;;;4.53;;
25107;SDS011;13090;53.422;7.670;2023-03-20T10:50:48;7.80;;;4.30;;
25107;SDS011;13090;53.422;7.670;2023-03-20T10:55:54;10.15;;;4.70;;
25107;SDS011;13090;53.422;7.670;2023-03-20T11:01:02;8.63;;;4.43;;
25107;SDS011;13090;53.422;7.670;2023-03-20T11:06:05;7.88;;;4.22;;
25107;SDS011;13090;53.422;7.670;2023-03-20T11:11:14;8.18;;;4.55;;
25107;SDS011;13090;53.422;7.670;2023-03-20T11:16:24;9.88;;;4.50;;
25107;SDS011;13090;53.422;7.670;2023-03-20T11:21:32;8.80;;;4.38;;
25107;SDS011;13090;53.422;7.670;2023-03-20T11:26:38;8.70;;;4.38;;
25107;SDS011;13090;53.422;7.670;2023-03-20T11:31:43;11.57;;;5.07;;
25107;SDS011;13090;53.422;7.670;2023-03-20T11:36:51;8.80;;;5.28;;
25107;SDS011;13090;53.422;7.670;2023-03-20T11:42:20;7.55;;;4.07;;
25107;SDS011;13090;53.422;7.670;2023-03-20T11:47:27;10.45;;;3.88;;
25107;SDS011;13090;53.422;7.670;2023-03-20T11:57:36;8.98;;;4.93;;
25107;SDS011;13090;53.422;7.670;2023-03-20T12:02:40;9.27;;;4.90;;
25107;SDS011;13090;53.422;7.670;2023-03-20T12:07:44;8.35;;;4.90;;
25107;SDS011;13090;53.422;7.670;2023-03-20T12:12:49;8.50;;;4.65;;
25107;SDS011;13090;53.422;7.670;2023-03-20T12:18:01;11.93;;;5.25;;
25107;SDS011;13090;53.422;7.670;2023-03-20T12:23:11;9.95;;;4.30;;
25107;SDS011;13090;53.422;7.670;2023-03-20T12:28:17;9.85;;;5.45;;
25107;SDS011;13090;53.422;7.670;2023-03-20T12:33:30;13.57;;;5.57;;
25107;SDS011;13090;53.422;7.670;2023-03-20T12:38:40;9.95;;;4.82;;
25107;SDS011;13090;53.422;7.670;2023-03-20T12:43:49;9.05;;;4.95;;
25107;SDS011;13090;53.422;7.670;2023-03-20T12:49:08;8.68;;;4.53;;
25107;SDS011;13090;53.422;7.670;2023-03-20T12:54:26;9.02;;;4.88;;
25107;SDS011;13090;53.422;7.670;2023-03-20T12:59:43;12.77;;;5.60;;
25107;SDS011;13090;53.422;7.670;2023-03-20T13:04:58;7.55;;;5.15;;
25107;SDS011;13090;53.422;7.670;2023-03-20T13:10:11;10.32;;;5.15;;
25107;SDS011;13090;53.422;7.670;2023-03-20T13:15:23;11.95;;;4.57;;
25107;SDS011;13090;53.422;7.670;2023-03-20T13:20:34;9.15;;;4.00;;
25107;SDS011;13090;53.422;7.670;2023-03-20T13:25:49;9.43;;;3.65;;
25107;SDS011;13090;53.422;7.670;2023-03-20T13:31:13;9.73;;;3.92;;
25107;SDS011;13090;53.422;7.670;2023-03-20T13:36:27;7.45;;;4.68;;
25107;SDS011;13090;53.422;7.670;2023-03-20T13:41:38;8.07;;;3.20;;
25107;SDS011;13090;53.422;7.670;2023-03-20T13:46:41;10.38;;;3.15;;
25107;SDS011;13090;53.422;7.670;2023-03-20T13:51:48;6.35;;;3.28;;
25107;SDS011;13090;53.422;7.670;2023-03-20T13:56:56;5.07;;;3.10;;
25107;SDS011;13090;53.422;7.670;2023-03-20T14:02:10;7.22;;;3.35;;
25107;SDS011;13090;53.422;7.670;2023-03-20T14:07:30;6.53;;;3.60;;
25107;SDS011;13090;53.422;7.670;2023-03-20T14:12:33;6.65;;;4.13;;
25107;SDS011;13090;53.422;7.670;2023-03-20T14:17:37;9.57;;;4.30;;
25107;SDS011;13090;53.422;7.670;2023-03-20T14:22:46;7.93;;;3.80;;
25107;SDS011;13090;53.422;7.670;2023-03-20T14:27:52;6.57;;;4.00;;
25107;SDS011;13090;53.422;7.670;2023-03-20T14:32:57;9.73;;;4.30;;
25107;SDS011;13090;53.422;7.670;2023-03-20T14:38:20;6.03;;;4.40;;
25107;SDS011;13090;53.422;7.670;2023-03-20T14:43:34;6.90;;;4.30;;
25107;SDS011;13090;53.422;7.670;2023-03-20T14:48:53;9.35;;;4.85;;
25107;SDS011;13090;53.422;7.670;2023-03-20T14:53:57;6.53;;;4.47;;
25107;SDS011;13090;53.422;7.670;2023-03-20T14:59:26;10.98;;;4.47;;
25107;SDS011;13090;53.422;7.670;2023-03-20T15:04:34;5.70;;;3.90;;
25107;SDS011;13090;53.422;7.670;2023-03-20T15:09:42;7.35;;;4.28;;
25107;SDS011;13090;53.422;7.670;2023-03-20T15:14:49;7.03;;;4.35;;
25107;SDS011;13090;53.422;7.670;2023-03-20T15:19:59;8.07;;;4.95;;
25107;SDS011;13090;53.422;7.670;2023-03-20T15:25:14;7.35;;;4.30;;
25107;SDS011;13090;53.422;7.670;2023-03-20T15:30:19;11.05;;;5.00;;
25107;SDS011;13090;53.422;7.670;2023-03-20T15:35:25;6.03;;;4.15;;
25107;SDS011;13090;53.422;7.670;2023-03-20T15:40:29;8.50;;;4.95;;
25107;SDS011;13090;53.422;7.670;2023-03-20T15:45:50;7.80;;;4.75;;
25107;SDS011;13090;53.422;7.670;2023-03-20T15:51:03;10.65;;;4.30;;
25107;SDS011;13090;53.422;7.670;2023-03-20T15:56:09;6.60;;;3.92;;
25107;SDS011;13090;53.422;7.670;2023-03-20T16:01:21;6.40;;;4.13;;
25107;SDS011;13090;53.422;7.670;2023-03-20T16:06:26;7.20;;;3.60;;
25107;SDS011;13090;53.422;7.670;2023-03-20T16:11:37;4.43;;;3.50;;
25107;SDS011;13090;53.422;7.670;2023-03-20T16:16:40;8.05;;;3.95;;
25107;SDS011;13090;53.422;7.670;2023-03-20T16:21:45;5.65;;;3.78;;
25107;SDS011;13090;53.422;7.670;2023-03-20T16:26:52;6.00;;;4.00;;
25107;SDS011;13090;53.422;7.670;2023-03-20T16:31:57;5.50;;;3.92;;
25107;SDS011;13090;53.422;7.670;2023-03-20T16:37:05;4.50;;;3.03;;
25107;SDS011;13090;53.422;7.670;2023-03-20T16:42:17;7.75;;;4.25;;
25107;SDS011;13090;53.422;7.670;2023-03-20T16:47:32;5.25;;;3.85;;
25107;SDS011;13090;53.422;7.670;2023-03-20T16:52:37;6.88;;;3.80;;
25107;SDS011;13090;53.422;7.670;2023-03-20T16:57:46;4.68;;;3.53;;
25107;SDS011;13090;53.422;7.670;2023-03-20T17:03:00;6.10;;;3.58;;
25107;SDS011;13090;53.422;7.670;2023-03-20T17:08:14;6.13;;;4.10;;
25107;SDS011;13090;53.422;7.670;2023-03-20T17:13:24;6.80;;;3.65;;
25107;SDS011;13090;53.422;7.670;2023-03-20T17:18:26;7.20;;;4.07;;
25107;SDS011;13090;53.422;7.670;2023-03-20T17:23:29;5.20;;;3.50;;
25107;SDS011;13090;53.422;7.670;2023-03-20T17:28:34;6.10;;;3.90;;
25107;SDS011;13090;53.422;7.670;2023-03-20T17:33:39;5.88;;;3.95;;
25107;SDS011;13090;53.422;7.670;2023-03-20T17:38:41;5.82;;;4.18;;
25107;SDS011;13090;53.422;7.670;2023-03-20T17:43:45;6.03;;;4.10;;
25107;SDS011;13090;53.422;7.670;2023-03-20T17:48:48;5.88;;;4.38;;
25107;SDS011;13090;53.422;7.670;2023-03-20T17:53:52;8.80;;;5.15;;
25107;SDS011;13090;53.422;7.670;2023-03-20T17:58:57;7.05;;;4.88;;
25107;SDS011;13090;53.422;7.670;2023-03-20T18:04:00;6.50;;;5.53;;
25107;SDS011;13090;53.422;7.670;2023-03-20T18:09:06;9.77;;;5.63;;
25107;SDS011;13090;53.422;7.670;2023-03-20T18:14:13;7.10;;;5.40;;
25107;SDS011;13090;53.422;7.670;2023-03-20T18:19:19;10.50;;;5.57;;
25107;SDS011;13090;53.422;7.670;2023-03-20T18:24:24;9.77;;;6.10;;
25107;SDS011;13090;53.422;7.670;2023-03-20T18:29:28;8.88;;;6.03;;
25107;SDS011;13090;53.422;7.670;2023-03-20T18:34:30;10.02;;;6.40;;
25107;SDS011;13090;53.422;7.670;2023-03-20T18:39:33;10.80;;;6.68;;
25107;SDS011;13090;53.422;7.670;2023-03-20T18:44:37;9.52;;;6.80;;
25107;SDS011;13090;53.422;7.670;2023-03-20T18:49:41;7.97;;;6.30;;
25107;SDS011;13090;53.422;7.670;2023-03-20T18:54:43;8.70;;;6.63;;
25107;SDS011;13090;53.422;7.670;2023-03-20T18:59:48;8.43;;;6.43;;
25107;SDS011;13090;53.422;7.670;2023-03-20T19:04:50;9.00;;;6.57;;
25107;SDS011;13090;53.422;7.670;2023-03-20T19:09:52;11.80;;;7.10;;
25107;SDS011;13090;53.422;7.670;2023-03-20T19:14:56;9.23;;;6.80;;
25107;SDS011;13090;53.422;7.670;2023-03-20T19:19:58;9.05;;;7.38;;
25107;SDS011;13090;53.422;7.670;2023-03-20T19:25:00;8.18;;;7.15;;
25107;SDS011;13090;53.422;7.670;2023-03-20T19:30:05;8.52;;;7.07;;
25107;SDS011;13090;53.422;7.670;2023-03-20T19:35:13;11.38;;;7.72;;
25107;SDS011;13090;53.422;7.670;2023-03-20T19:40:47;10.65;;;8.00;;
25107;SDS011;13090;53.422;7.670;2023-03-20T19:45:57;11.75;;;9.18;;
25107;SDS011;13090;53.422;7.670;2023-03-20T19:51:02;10.07;;;8.68;;
25107;SDS011;13090;53.422;7.670;2023-03-20T19:56:05;10.93;;;8.68;;
25107;SDS011;13090;53.422;7.670;2023-03-20T20:01:12;11.65;;;8.52;;
25107;SDS011;13090;53.422;7.670;2023-03-20T20:06:17;10.05;;;8.30;;
25107;SDS011;13090;53.422;7.670;2023-03-20T20:11:23;10.50;;;9.05;;
25107;SDS011;13090;53.422;7.670;2023-03-20T20:16:26;12.23;;;9.68;;
25107;SDS011;13090;53.422;7.670;2023-03-20T20:21:29;11.85;;;10.45;;
25107;SDS011;13090;53.422;7.670;2023-03-20T20:26:51;11.70;;;9.52;;
25107;SDS011;13090;53.422;7.670;2023-03-20T20:32:16;11.77;;;9.63;;
25107;SDS011;13090;53.422;7.670;2023-03-20T20:37:21;13.33;;;10.37;;
25107;SDS011;13090;53.422;7.670;2023-03-20T20:42:44;13.82;;;10.63;;
25107;SDS011;13090;53.422;7.670;2023-03-20T20:47:48;12.05;;;9.98;;
25107;SDS011;13090;53.422;7.670;2023-03-20T20:52:51;12.77;;;10.45;;
25107;SDS011;13090;53.422;7.670;2023-03-20T20:57:53;12.43;;;10.05;;
25107;SDS011;13090;53.422;7.670;2023-03-20T21:02:57;11.68;;;9.82;;
25107;SDS011;13090;53.422;7.670;2023-03-20T21:07:59;11.65;;;9.95;;
25107;SDS011;13090;53.422;7.670;2023-03-20T21:13:01;12.65;;;10.48;;
25107;SDS011;13090;53.422;7.670;2023-03-20T21:18:05;12.63;;;10.10;;
25107;SDS011;13090;53.422;7.670;2023-03-20T21:23:07;11.77;;;10.27;;
25107;SDS011;13090;53.422;7.670;2023-03-20T21:28:09;13.80;;;11.07;;
25107;SDS011;13090;53.422;7.670;2023-03-20T21:33:13;13.75;;;11.65;;
25107;SDS011;13090;53.422;7.670;2023-03-20T21:38:16;16.05;;;11.65;;
25107;SDS011;13090;53.422;7.670;2023-03-20T21:43:40;13.95;;;11.48;;
25107;SDS011;13090;53.422;7.670;2023-03-20T21:48:45;17.17;;;12.80;;
25107;SDS011;13090;53.422;7.670;2023-03-20T21:54:07;14.45;;;11.57;;
25107;SDS011;13090;53.422;7.670;2023-03-20T21:59:29;17.80;;;11.77;;
25107;SDS011;13090;53.422;7.670;2023-03-20T22:04:55;15.45;;;12.23;;
25107;SDS011;13090;53.422;7.670;2023-03-20T22:10:18;15.40;;;12.40;;
25107;SDS011;13090;53.422;7.670;2023-03-20T22:15:40;14.82;;;11.68;;
25107;SDS011;13090;53.422;7.670;2023-03-20T22:21:04;14.52;;;12.25;;
25107;SDS011;13090;53.422;7.670;2023-03-20T22:26:27;15.20;;;11.82;;
25107;SDS011;13090;53.422;7.670;2023-03-20T22:31:49;14.90;;;11.95;;
25107;SDS011;13090;53.422;7.670;2023-03-20T22:37:12;15.20;;;12.07;;
25107;SDS011;13090;53.422;7.670;2023-03-20T22:42:34;14.73;;;11.93;;
25107;SDS011;13090;53.422;7.670;2023-03-20T22:47:56;13.38;;;11.13;;
25107;SDS011;13090;53.422;7.670;2023-03-20T22:53:00;15.35;;;12.00;;
25107;SDS011;13090;53.422;7.670;2023-03-20T22:58:02;17.00;;;11.77;;
25107;SDS011;13090;53.422;7.670;2023-03-20T23:03:08;15.55;;;11.93;;
25107;SDS011;13090;53.422;7.670;2023-03-20T23:08:27;16.83;;;12.27;;
25107;SDS011;13090;53.422;7.670;2023-03-20T23:13:31;15.23;;;11.80;;
25107;SDS011;13090;53.422;7.670;2023-03-20T23:18:34;15.60;;;12.13;;
25107;SDS011;13090;53.422;7.670;2023-03-20T23:23:37;15.15;;;11.68;;
25107;SDS011;13090;53.422;7.670;2023-03-20T23:28:40;15.90;;;12.57;;
25107;SDS011;13090;53.422;7.670;2023-03-20T23:33:46;16.50;;;12.68;;
25107;SDS011;13090;53.422;7.670;2023-03-20T23:38:51;18.40;;;13.82;;
25107;SDS011;13090;53.422;7.670;2023-03-20T23:43:53;15.98;;;12.02;;
25107;SDS011;13090;53.422;7.670;2023-03-20T23:48:56;16.40;;;12.40;;
25107;SDS011;13090;53.422;7.670;2023-03-20T23:53:59;15.88;;;12.18;;
25107;SDS011;13090;53.422;7.670;2023-03-20T23:59:01;16.10;;;11.90;;
